Time;durP1;ratioP1;P1;durP2;ratioP2;P2;SDS_P1;SDS_P2;PMS_P1;PMS_P2;Temp;Humidity;BMP_temperature;BMP_pressure;BME280_temperature;BME280_humidity;BME280_pressure;Samples;Min_cycle;Max_cycle;Signal;HPM_P1;HPM_P2
2022/06/21 00:02:25;;;;;;;10.80;4.57;;;;;;;12.89;93.30;101505.22;5014955;28;20244;-73
2022/06/21 00:04:51;;;;;;;13.17;4.90;;;;;;;12.88;93.52;101509.53;5031984;28;20186;-73
2022/06/21 00:07:26;;;;;;;13.43;4.47;;;;;;;12.88;93.64;101503.50;5031989;28;20702;-74
2022/06/21 00:09:52;;;;;;;7.17;4.17;;;;;;;12.88;93.90;101512.94;5032594;28;20742;-74
2022/06/21 00:12:18;;;;;;;13.80;5.33;;;;;;;12.88;93.72;101513.78;5031486;28;20237;-73
2022/06/21 00:14:44;;;;;;;10.83;4.53;;;;;;;12.93;93.59;101511.34;5032592;28;20539;-73
2022/06/21 00:17:16;;;;;;;9.10;4.50;;;;;;;12.92;93.99;101515.59;5031736;28;20225;-73
2022/06/21 00:19:43;;;;;;;16.23;4.60;;;;;;;12.90;93.63;101517.28;5034238;28;20669;-74
2022/06/21 00:22:18;;;;;;;10.50;5.10;;;;;;;12.89;93.87;101518.97;5033420;28;20685;-74
2022/06/21 00:24:44;;;;;;;14.63;4.60;;;;;;;12.93;93.55;101511.34;5032243;28;20256;-73
2022/06/21 00:27:15;;;;;;;11.97;4.20;;;;;;;12.90;93.08;101512.97;5031555;28;20197;-73
2022/06/21 00:29:41;;;;;;;10.00;4.40;;;;;;;12.88;93.69;101518.09;5014082;28;20216;-73
2022/06/21 00:32:11;;;;;;;12.00;4.23;;;;;;;12.82;93.48;101521.38;5031909;28;20217;-74
2022/06/21 00:34:37;;;;;;;11.03;4.27;;;;;;;12.80;93.53;101521.34;5031304;28;20197;-73
2022/06/21 00:37:02;;;;;;;12.43;5.17;;;;;;;12.80;93.33;101521.34;5031869;28;20179;-73
2022/06/21 00:39:28;;;;;;;9.83;4.53;;;;;;;12.78;93.27;101524.72;5031454;28;20313;-73
2022/06/21 00:42:02;;;;;;;20.60;5.40;;;;;;;12.72;93.70;101527.16;5031928;28;20256;-73
2022/06/21 00:44:35;;;;;;;16.73;5.13;;;;;;;12.71;93.51;101534.00;5031509;28;20321;-73
2022/06/21 00:47:12;;;;;;;10.83;3.93;;;;;;;12.71;93.66;101527.97;5031878;28;20178;-73
2022/06/21 00:49:55;;;;;;;14.60;4.90;;;;;;;12.69;93.63;101533.09;5031210;28;20176;-73
2022/06/21 00:52:42;;;;;;;13.43;5.00;;;;;;;12.67;93.47;101527.06;5031837;28;20210;-74
2022/06/21 00:55:16;;;;;;;14.03;5.20;;;;;;;12.64;93.57;101526.13;5031606;28;20554;-74
2022/06/21 00:57:52;;;;;;;14.13;4.93;;;;;;;12.60;93.78;101535.47;5031338;28;20217;-73
2022/06/21 01:00:35;;;;;;;13.50;5.20;;;;;;;12.59;94.24;101528.56;5030787;28;20178;-73
2022/06/21 01:03:06;;;;;;;13.50;4.67;;;;;;;12.60;94.09;101521.75;5031376;28;20194;-74
2022/06/21 01:05:35;;;;;;;16.47;4.87;;;;;;;12.57;94.07;101530.25;5031653;28;20671;-73
2022/06/21 01:08:01;;;;;;;13.70;5.17;;;;;;;12.56;94.40;101523.38;5013377;28;20682;-73
2022/06/21 01:10:28;;;;;;;15.97;5.20;;;;;;;12.57;94.65;101516.53;5031418;28;20186;-74
2022/06/21 01:12:58;;;;;;;13.37;5.47;;;;;;;12.55;94.28;101515.63;5031002;28;20216;-73
2022/06/21 01:15:33;;;;;;;15.07;5.43;;;;;;;12.52;94.56;101524.16;5013743;28;20194;-73
2022/06/21 01:18:02;;;;;;;20.67;5.77;;;;;;;12.50;94.76;101518.09;5029765;28;20209;-73
2022/06/21 01:20:32;;;;;;;17.20;6.07;;;;;;;12.50;94.96;101522.38;5031185;28;20186;-73
2022/06/21 01:23:24;;;;;;;15.03;5.93;;;;;;;12.48;95.10;101526.59;5013461;28;20189;-73
2022/06/21 01:26:13;;;;;;;15.77;6.00;;;;;;;12.45;94.70;101527.41;5031193;28;20244;-74
2022/06/21 01:28:39;;;;;;;14.83;5.50;;;;;;;12.42;95.04;101535.06;5013342;28;20166;-74
2022/06/21 01:31:06;;;;;;;13.77;5.50;;;;;;;12.40;95.01;101534.13;5012595;28;20198;-74
2022/06/21 01:33:35;;;;;;;15.37;5.70;;;;;;;12.38;95.08;101530.69;5030856;28;20600;-73
2022/06/21 01:36:04;;;;;;;17.57;6.10;;;;;;;12.37;94.97;101528.94;5030712;28;20189;-73
2022/06/21 01:38:35;;;;;;;13.70;6.23;;;;;;;12.38;94.99;101530.69;5030840;28;20206;-74
2022/06/21 01:41:08;;;;;;;13.97;5.63;;;;;;;12.38;95.13;101534.94;5030231;28;20591;-73
2022/06/21 01:43:37;;;;;;;16.73;6.43;;;;;;;12.34;95.09;101538.25;5030280;28;20163;-73
2022/06/21 01:46:12;;;;;;;15.53;5.80;;;;;;;12.34;95.30;101533.13;5029989;28;20317;-73
2022/06/21 01:48:43;;;;;;;17.37;6.90;;;;;;;12.31;95.39;101530.50;5030707;28;20194;-73
2022/06/21 01:51:13;;;;;;;25.97;7.23;;;;;;;12.30;95.81;101527.06;5012349;28;20278;-73
2022/06/21 01:53:40;;;;;;;19.33;7.03;;;;;;;12.26;95.49;101532.09;5030333;28;20650;-73
2022/06/21 01:56:10;;;;;;;21.50;6.90;;;;;;;12.26;95.61;101530.38;5030325;28;20273;-75
2022/06/21 01:58:41;;;;;;;18.33;6.50;;;;;;;12.26;96.03;101534.66;5029994;28;20247;-73
2022/06/21 02:01:20;;;;;;;20.53;6.07;;;;;;;12.25;95.68;101526.09;5030276;28;20214;-73
2022/06/21 02:03:51;;;;;;;17.17;6.27;;;;;;;12.26;96.22;101526.97;5029980;28;20201;-73
2022/06/21 02:06:17;;;;;;;16.90;6.80;;;;;;;12.26;95.70;101525.25;5030305;28;20227;-73
2022/06/21 02:08:48;;;;;;;17.43;6.90;;;;;;;12.24;96.14;101524.34;5029939;28;20620;-73
2022/06/21 02:11:29;;;;;;;17.37;6.70;;;;;;;12.24;96.16;101518.34;5030317;28;20208;-73
2022/06/21 02:14:31;;;;;;;19.83;7.03;;;;;;;12.22;96.10;101525.16;5029486;28;20182;-73
2022/06/21 02:16:52;;;;;;;17.77;5.43;;;;;;;12.18;96.03;101524.22;5009239;28;20571;-73
2022/06/21 02:19:43;;;;;;;20.57;6.50;;;;;;;12.23;95.75;101525.19;5020777;28;20205;-73
2022/06/21 02:22:19;;;;;;;21.97;7.20;;;;;;;12.27;95.98;101521.88;5020735;28;20684;-73
2022/06/21 02:24:45;;;;;;;20.70;6.30;;;;;;;12.24;95.80;101506.38;5011733;28;20193;-73
2022/06/21 02:27:15;;;;;;;15.60;5.80;;;;;;;12.23;95.61;101511.47;5029824;28;20258;-73
2022/06/21 02:29:43;;;;;;;15.27;5.40;;;;;;;12.21;95.68;101508.88;5030007;28;20228;-73
2022/06/21 02:32:21;;;;;;;15.30;6.07;;;;;;;12.22;95.58;101505.47;5029279;28;20707;-74
2022/06/21 02:34:48;;;;;;;20.43;6.97;;;;;;;12.24;95.67;101510.63;5029986;28;20281;-73
2022/06/21 02:37:15;;;;;;;20.53;6.50;;;;;;;12.20;95.31;101503.69;5029185;28;20590;-73
2022/06/21 02:39:42;;;;;;;17.20;6.30;;;;;;;12.14;95.65;101511.25;5011839;28;20198;-73
2022/06/21 02:42:22;;;;;;;18.27;6.60;;;;;;;12.11;95.43;101506.91;5029322;28;20209;-73
2022/06/21 02:44:56;;;;;;;21.27;6.30;;;;;;;12.12;95.44;101511.22;5029850;28;20170;-73
2022/06/21 02:47:29;;;;;;;18.13;6.40;;;;;;;12.09;95.16;101511.16;5029071;28;20175;-73
2022/06/21 02:50:07;;;;;;;16.80;5.53;;;;;;;12.04;95.41;101514.44;5029603;28;20212;-73
2022/06/21 02:52:39;;;;;;;15.23;6.53;;;;;;;12.04;95.41;101514.44;5028561;28;20206;-73
2022/06/21 02:55:20;;;;;;;20.70;5.87;;;;;;;12.00;95.29;101517.75;5029042;28;20776;-73
2022/06/21 02:57:54;;;;;;;12.13;5.67;;;;;;;12.00;95.23;101530.59;5029094;28;20218;-74
2022/06/21 03:00:20;;;;;;;17.73;5.80;;;;;;;11.97;95.13;101523.69;5029427;28;20205;-73
2022/06/21 03:02:46;;;;;;;14.63;5.30;;;;;;;11.98;95.06;101524.56;5029486;28;20269;-73
2022/06/21 03:05:16;;;;;;;14.50;5.27;;;;;;;12.00;94.96;101525.47;5028795;28;20201;-73
2022/06/21 03:07:48;;;;;;;17.67;5.40;;;;;;;11.99;95.01;101523.72;5029196;28;20546;-73
2022/06/21 03:10:24;;;;;;;14.97;5.50;;;;;;;11.97;94.98;101531.38;5028815;28;20190;-73
2022/06/21 03:12:56;;;;;;;16.50;5.60;;;;;;;11.97;95.04;101525.38;5011686;28;20206;-73
2022/06/21 03:15:22;;;;;;;22.27;6.20;;;;;;;11.99;94.68;101532.28;5028986;28;20699;-73
2022/06/21 03:18:05;;;;;;;18.17;5.40;;;;;;;11.98;94.63;101522.00;4995382;28;20297;-73
2022/06/21 03:20:33;;;;;;;14.60;4.93;;;;;;;11.96;94.46;101521.06;5028736;28;20173;-73
2022/06/21 03:22:59;;;;;;;14.53;4.87;;;;;;;11.94;94.83;101513.34;5029214;28;20186;-73
2022/06/21 03:25:30;;;;;;;18.63;5.70;;;;;;;11.96;94.96;101523.66;5029342;28;20194;-73
2022/06/21 03:28:01;;;;;;;13.00;5.53;;;;;;;11.93;94.75;101519.31;5028808;28;20187;-73
2022/06/21 03:30:35;;;;;;;16.03;5.13;;;;;;;11.98;94.59;101522.00;5029301;28;20189;-73
2022/06/21 03:33:03;;;;;;;20.97;5.03;;;;;;;11.98;94.50;101533.13;5029036;28;20595;-73
2022/06/21 03:35:33;;;;;;;16.50;5.30;;;;;;;11.98;94.71;101522.84;5029507;28;20204;-74
2022/06/21 03:37:59;;;;;;;15.57;5.00;;;;;;;12.01;94.00;101533.22;5028772;28;20202;-74
2022/06/21 03:43:36;;;;;;;17.30;5.20;;;;;;;11.97;94.32;101543.34;5028811;28;20656;-73
2022/06/21 03:46:08;;;;;;;12.83;4.13;;;;;;;12.01;94.24;101546.03;5029182;28;20265;-72
2022/06/21 03:48:46;;;;;;;15.20;5.57;;;;;;;12.03;94.17;101541.78;5028516;28;20178;-73
2022/06/21 03:51:18;;;;;;;11.80;4.70;;;;;;;12.05;94.11;101544.41;5029070;28;20252;-73
2022/06/21 03:53:56;;;;;;;12.97;4.90;;;;;;;12.05;94.03;101545.28;5028668;28;20178;-73
2022/06/21 03:56:52;;;;;;;15.67;4.77;;;;;;;12.04;93.88;101537.53;5028853;28;20244;-73
2022/06/21 03:59:48;;;;;;;18.13;5.13;;;;;;;12.05;93.90;101542.72;5028761;28;20210;-73
2022/06/21 04:02:38;;;;;;;14.57;4.80;;;;;;;12.07;93.96;101551.31;5028880;28;20202;-74
2022/06/21 04:05:29;;;;;;;12.67;4.73;;;;;;;12.10;93.15;101559.09;5010592;28;20257;-74
2022/06/21 04:08:07;;;;;;;17.03;4.97;;;;;;;12.12;93.63;101561.72;5030880;28;20175;-73
2022/06/21 04:10:37;;;;;;;11.47;4.70;;;;;;;12.13;93.30;101560.88;5032076;28;20619;-74
2022/06/21 04:13:23;;;;;;;13.57;4.67;;;;;;;12.14;92.93;101553.22;5032912;28;20206;-74
2022/06/21 04:15:59;;;;;;;17.30;4.93;;;;;;;12.19;92.70;101556.75;5014685;28;20674;-74
2022/06/21 04:18:33;;;;;;;11.90;4.10;;;;;;;12.24;92.34;101556.84;5032000;28;20256;-73
2022/06/21 04:21:00;;;;;;;14.17;4.63;;;;;;;12.28;92.60;101558.66;5032398;28;20285;-74
2022/06/21 04:23:47;;;;;;;12.10;4.10;;;;;;;12.34;92.19;101553.66;5031966;28;20807;-74
2022/06/21 04:26:29;;;;;;;17.83;4.33;;;;;;;12.37;91.96;101554.63;5032508;28;20190;-75
2022/06/21 04:29:01;;;;;;;11.17;3.63;;;;;;;12.43;92.14;101562.47;5031926;28;20177;-74
2022/06/21 04:31:43;;;;;;;12.30;4.60;;;;;;;12.49;92.05;101564.31;5032195;28;20297;-73
2022/06/21 04:34:24;;;;;;;12.27;4.03;;;;;;;12.57;91.83;101567.91;5031975;28;20568;-73
2022/06/21 04:36:52;;;;;;;12.80;3.77;;;;;;;12.62;91.55;101572.34;5031956;28;20708;-74
2022/06/21 04:39:29;;;;;;;17.07;4.40;;;;;;;12.70;91.64;101570.81;5031567;28;20543;-74
2022/06/21 04:42:16;;;;;;;15.53;4.40;;;;;;;12.78;91.57;101573.56;5032088;28;20832;-73
2022/06/21 04:44:44;;;;;;;16.30;3.97;;;;;;;12.84;90.86;101563.38;5031538;28;20162;-73
2022/06/21 04:47:19;;;;;;;13.47;3.77;;;;;;;12.89;90.79;101564.34;5031836;28;20185;-74
2022/06/21 04:49:52;;;;;;;16.03;4.00;;;;;;;12.95;90.47;101556.78;5031658;28;20170;-73
2022/06/21 04:52:26;;;;;;;12.47;4.00;;;;;;;13.05;90.58;101561.31;5032040;28;20296;-74
2022/06/21 04:54:52;;;;;;;10.80;3.90;;;;;;;13.10;90.38;101566.53;5031986;28;20170;-73
2022/06/21 04:57:24;;;;;;;10.87;4.00;;;;;;;13.22;90.29;101561.66;5013489;28;20714;-73
2022/06/21 04:59:49;;;;;;;13.17;4.30;;;;;;;13.30;89.50;101567.84;5031088;28;20688;-73
2022/06/21 05:02:33;;;;;;;14.50;4.27;;;;;;;13.42;89.35;101571.50;5030995;28;20210;-73
2022/06/21 05:05:12;;;;;;;11.00;3.57;;;;;;;13.48;88.81;101565.63;5031559;28;20540;-74
2022/06/21 05:07:44;;;;;;;14.63;4.20;;;;;;;13.54;87.87;101571.72;5030865;28;20182;-74
2022/06/21 05:10:16;;;;;;;15.10;4.13;;;;;;;13.67;88.09;101570.28;5031328;28;20491;-74
2022/06/21 05:12:44;;;;;;;11.77;3.43;;;;;;;13.75;87.64;101572.13;5031076;28;20704;-74
2022/06/21 05:15:17;;;;;;;17.43;4.70;;;;;;;13.88;87.56;101566.38;5031475;28;20189;-73
2022/06/21 05:17:48;;;;;;;14.03;4.03;;;;;;;14.00;88.18;101569.16;5030570;28;20202;-74
2022/06/21 05:20:22;;;;;;;9.10;3.40;;;;;;;14.07;87.25;101557.25;5030520;28;20189;-73
2022/06/21 05:22:51;;;;;;;9.83;3.60;;;;;;;14.19;86.69;101568.63;4996997;28;20559;-73
2022/06/21 05:25:36;;;;;;;14.67;4.33;;;;;;;14.31;86.76;101568.00;5030899;28;20301;-73
2022/06/21 05:28:19;;;;;;;14.67;3.87;;;;;;;14.41;85.72;101565.56;5031041;28;20743;-73
2022/06/21 05:30:52;;;;;;;9.50;3.50;;;;;;;14.48;85.18;101564.84;5030546;28;20718;-73
2022/06/21 05:33:27;;;;;;;13.30;4.00;;;;;;;14.60;85.55;101566.72;5030962;28;20194;-74
2022/06/21 05:35:53;;;;;;;10.77;3.07;;;;;;;14.67;84.65;101573.69;5012680;28;20235;-74
2022/06/21 05:38:25;;;;;;;14.40;3.73;;;;;;;14.79;84.34;101566.13;5030736;28;20236;-74
2022/06/21 05:41:07;;;;;;;15.27;4.13;;;;;;;14.92;84.28;101561.16;5030408;28;20928;-74
2022/06/21 05:43:39;;;;;;;12.50;3.83;;;;;;;15.04;83.63;101555.28;5030880;28;20194;-74
2022/06/21 05:46:33;;;;;;;12.43;3.63;;;;;;;15.19;83.94;101561.50;5030330;28;20667;-74
2022/06/21 05:49:00;;;;;;;11.00;3.53;;;;;;;15.29;82.91;101562.50;5027899;28;20241;-74
2022/06/21 05:51:31;;;;;;;11.80;3.67;;;;;;;15.40;82.49;101559.22;5030232;28;20285;-74
2022/06/21 05:54:05;;;;;;;13.20;3.60;;;;;;;15.51;81.63;101559.34;5013109;28;20171;-74
2022/06/21 05:56:34;;;;;;;17.47;3.10;;;;;;;15.61;81.88;101559.44;5030254;28;20185;-74
2022/06/21 05:59:01;;;;;;;13.80;2.63;;;;;;;15.76;81.75;101556.16;5030593;28;20225;-74
2022/06/21 06:01:37;;;;;;;8.03;2.60;;;;;;;15.92;80.86;101552.84;5030684;28;20676;-74
2022/06/21 06:04:13;;;;;;;11.53;3.00;;;;;;;15.96;80.30;101559.78;5030034;28;20167;-74
2022/06/21 06:06:42;;;;;;;9.23;2.60;;;;;;;16.03;80.39;101567.59;5012790;28;20240;-74
2022/06/21 06:09:14;;;;;;;11.07;2.60;;;;;;;16.19;79.82;101566.91;5030158;28;20179;-74
2022/06/21 06:12:03;;;;;;;9.17;2.50;;;;;;;16.39;78.60;101562.75;5030211;28;20908;-74
2022/06/21 06:14:32;;;;;;;11.53;2.77;;;;;;;16.35;77.17;101566.16;5029973;28;20198;-74
2022/06/21 06:17:03;;;;;;;11.80;2.50;;;;;;;16.52;77.90;101562.00;5030243;28;20198;-74
2022/06/21 06:19:38;;;;;;;12.63;2.70;;;;;;;16.60;76.40;101565.53;5029780;28;20201;-74
2022/06/21 06:22:29;;;;;;;11.10;2.70;;;;;;;16.78;76.49;101559.59;5030266;28;20241;-74
2022/06/21 06:25:10;;;;;;;12.97;2.70;;;;;;;16.80;76.33;101560.47;5029765;28;20926;-74
2022/06/21 06:27:49;;;;;;;8.63;2.77;;;;;;;17.02;75.34;101562.28;5029887;28;20178;-74
2022/06/21 06:30:28;;;;;;;9.80;2.70;;;;;;;17.23;75.41;101555.47;5029366;28;20186;-74
2022/06/21 06:33:06;;;;;;;9.07;2.47;;;;;;;17.23;74.28;101549.44;5029840;28;20186;-74
2022/06/21 06:35:31;;;;;;;9.53;2.23;;;;;;;17.36;74.19;101553.81;5029633;28;20194;-74
2022/06/21 06:37:57;;;;;;;9.60;2.30;;;;;;;17.23;73.35;101559.81;5029604;28;20214;-74
2022/06/21 06:40:32;;;;;;;9.70;2.27;;;;;;;17.39;72.95;101559.00;5029789;28;20190;-74
2022/06/21 06:43:03;;;;;;;6.87;2.50;;;;;;;17.49;72.11;101566.84;5029516;28;20182;-74
2022/06/21 06:45:35;;;;;;;8.53;2.13;;;;;;;17.63;71.64;101566.84;5012114;28;20520;-74
2022/06/21 06:48:04;;;;;;;10.77;2.30;;;;;;;17.60;71.04;101564.28;5029174;28;20182;-74
2022/06/21 06:50:35;;;;;;;11.07;2.43;;;;;;;17.77;70.10;101563.44;5029681;28;20197;-74
2022/06/21 06:53:06;;;;;;;9.47;2.70;;;;;;;17.94;70.08;101572.13;5029181;28;20336;-74
2022/06/21 06:55:37;;;;;;;7.80;2.10;;;;;;;18.23;69.91;101566.94;5029642;28;20731;-74
2022/06/21 06:58:08;;;;;;;8.87;2.57;;;;;;;18.35;69.85;101552.28;5028871;28;20309;-74
2022/06/21 07:00:42;;;;;;;9.47;2.53;;;;;;;18.40;70.15;101560.03;5029561;28;20175;-74
2022/06/21 07:03:17;;;;;;;9.97;2.13;;;;;;;18.70;70.15;101558.25;5029673;28;20194;-74
2022/06/21 07:05:58;;;;;;;8.73;2.30;;;;;;;18.71;66.84;101553.94;5029530;28;20827;-74
2022/06/21 07:08:54;;;;;;;10.13;2.57;;;;;;;18.90;66.47;101561.69;5029617;28;20645;-74
2022/06/21 07:12:19;;;;;;;6.07;2.57;;;;;;;18.93;66.46;101566.84;5028985;28;20207;-73
2022/06/21 07:14:47;;;;;;;9.03;2.27;;;;;;;19.16;65.94;101562.44;4985025;28;20293;-73
2022/06/21 07:17:45;;;;;;;8.07;2.50;;;;;;;19.28;65.22;101553.75;5028888;28;20265;-74
2022/06/21 07:20:34;;;;;;;8.53;2.13;;;;;;;19.41;65.69;101553.72;5029098;28;20340;-74
2022/06/21 07:22:59;;;;;;;7.03;2.10;;;;;;;19.50;65.15;101552.78;5028849;28;20194;-73
2022/06/21 07:25:51;;;;;;;6.97;2.20;;;;;;;19.60;63.91;101559.66;5031083;28;20217;-73
2022/06/21 07:28:35;;;;;;;9.77;2.43;;;;;;;19.61;63.54;101554.47;5045318;28;20205;-74
2022/06/21 07:31:31;;;;;;;8.87;2.40;;;;;;;19.72;62.74;101547.44;5049215;28;20210;-74
2022/06/21 07:34:06;;;;;;;11.83;2.37;;;;;;;20.01;62.80;101542.03;5045020;28;20664;-74
2022/06/21 07:36:39;;;;;;;9.37;2.20;;;;;;;20.10;61.89;101539.41;5032562;28;20276;-74
2022/06/21 07:39:15;;;;;;;11.43;2.73;;;;;;;20.26;61.35;101533.22;5027856;28;20210;-75
2022/06/21 07:41:47;;;;;;;6.40;2.13;;;;;;;20.06;60.91;101538.53;5029598;28;20241;-74
2022/06/21 07:44:33;;;;;;;8.10;2.27;;;;;;;20.51;62.13;101537.28;5032968;28;20191;-74
2022/06/21 07:47:06;;;;;;;8.53;2.20;;;;;;;20.48;60.07;101543.41;5013190;28;20625;-74
2022/06/21 07:49:43;;;;;;;6.00;2.30;;;;;;;20.66;59.16;101539.72;5012957;28;20178;-74
2022/06/21 07:52:13;;;;;;;5.87;2.13;;;;;;;20.74;59.54;101548.34;4995418;28;20202;-74
2022/06/21 07:54:48;;;;;;;9.20;2.30;;;;;;;20.78;58.58;101550.88;5018484;28;20193;-74
2022/06/21 07:57:20;;;;;;;6.43;2.20;;;;;;;20.75;57.95;101552.66;5039161;28;20190;-74
2022/06/21 07:59:54;;;;;;;9.03;2.30;;;;;;;20.72;57.72;101550.06;5045813;28;20548;-74
2022/06/21 08:08:25;;;;;;;9.10;2.40;;;;;;;21.24;57.47;101559.91;5032648;28;20187;-74
2022/06/21 08:10:58;;;;;;;5.77;2.00;;;;;;;21.40;54.94;101556.25;5032085;28;20213;-74
2022/06/21 08:13:24;;;;;;;7.00;2.10;;;;;;;21.51;55.20;101559.53;5032770;28;20171;-74
2022/06/21 08:15:58;;;;;;;10.83;2.37;;;;;;;21.65;54.26;101564.59;5032313;28;20561;-74
2022/06/21 08:18:39;;;;;;;7.93;2.20;;;;;;;21.44;55.42;101557.03;5032145;28;20199;-74
2022/06/21 08:21:11;;;;;;;8.77;2.47;;;;;;;21.57;55.00;101564.69;5032398;28;20260;-74
2022/06/21 08:23:49;;;;;;;6.57;1.87;;;;;;;21.58;54.68;101560.31;5032096;28;20185;-74
2022/06/21 08:26:41;;;;;;;6.60;1.90;;;;;;;21.82;54.57;101560.88;5032510;28;20167;-74
2022/06/21 08:29:13;;;;;;;6.67;1.93;;;;;;;22.32;54.79;101560.06;5025464;28;20234;-74
2022/06/21 08:31:44;;;;;;;5.00;2.03;;;;;;;22.32;53.87;101557.44;5011813;28;20310;-74
2022/06/21 08:34:23;;;;;;;6.97;2.57;;;;;;;22.27;52.52;101551.44;5041657;28;20193;-74
2022/06/21 08:36:52;;;;;;;8.03;1.90;;;;;;;22.63;53.89;101550.84;5029823;28;20194;-75
2022/06/21 08:39:47;;;;;;;6.30;2.23;;;;;;;22.45;54.16;101545.94;5029485;28;20576;-75
2022/06/21 08:42:16;;;;;;;6.87;2.23;;;;;;;22.44;54.28;101552.88;5031764;28;20198;-75
2022/06/21 08:48:34;;;;;;;7.87;2.00;;;;;;;22.89;53.29;101561.66;5040996;28;20598;-75
2022/06/21 08:51:16;;;;;;;5.97;1.73;;;;;;;22.84;52.03;101558.25;5012996;28;20222;-75
2022/06/21 08:53:53;;;;;;;8.27;2.00;;;;;;;22.91;51.84;101561.59;5031406;28;20182;-75
2022/06/21 08:56:29;;;;;;;7.40;2.40;;;;;;;22.63;52.77;101563.03;5031006;28;20183;-74
2022/06/21 08:59:03;;;;;;;6.23;2.03;;;;;;;22.70;52.04;101562.88;5030410;28;20225;-74
2022/06/21 09:01:37;;;;;;;6.17;2.03;;;;;;;22.49;52.16;101568.50;5030528;28;20255;-74
2022/06/21 09:04:14;;;;;;;6.30;2.20;;;;;;;22.59;51.20;101566.56;5034004;28;20213;-74
2022/06/21 09:07:19;;;;;;;7.33;1.97;;;;;;;23.04;51.42;101563.09;5051070;28;20224;-74
2022/06/21 09:10:05;;;;;;;8.03;2.00;;;;;;;23.23;50.12;101556.63;5038052;28;20186;-74
2022/06/21 09:13:21;;;;;;;5.90;2.17;;;;;;;23.32;49.61;101565.16;5031098;28;20209;-74
2022/06/21 09:16:00;;;;;;;5.13;1.80;;;;;;;23.65;49.39;101559.19;4986677;28;20190;-73
2022/06/21 09:18:38;;;;;;;7.72;2.08;;;;;;;23.32;48.70;101559.91;5030042;28;20256;-74
2022/06/21 09:21:30;;;;;;;6.10;1.80;;;;;;;23.53;47.55;101554.22;5030358;28;20214;-73
2022/06/21 09:23:59;;;;;;;4.55;1.90;;;;;;;23.74;46.73;101565.94;5031043;28;20170;-74
2022/06/21 09:26:41;;;;;;;5.63;1.73;;;;;;;23.67;45.81;101567.84;5012454;28;20186;-74
2022/06/21 09:29:18;;;;;;;3.70;1.42;;;;;;;23.64;44.95;101572.28;5029735;28;20193;-73
2022/06/21 09:31:56;;;;;;;4.78;1.40;;;;;;;23.80;45.43;101566.66;5021712;28;20270;-74
2022/06/21 09:34:39;;;;;;;5.30;1.67;;;;;;;24.10;47.17;101560.75;5012880;28;20282;-73
2022/06/21 09:37:31;;;;;;;6.07;1.55;;;;;;;24.05;46.16;101569.59;5029470;28;20194;-74
2022/06/21 09:40:14;;;;;;;6.38;2.05;;;;;;;23.99;46.80;101567.16;5029595;28;20236;-73
2022/06/21 09:42:51;;;;;;;6.15;1.77;;;;;;;24.34;45.74;101564.50;5038597;28;20283;-73
2022/06/21 09:45:35;;;;;;;5.68;1.58;;;;;;;24.05;45.21;101573.09;5031210;28;20189;-73
2022/06/21 09:48:00;;;;;;;5.03;1.60;;;;;;;24.25;45.29;101569.97;5029441;28;20643;-74
2022/06/21 09:50:38;;;;;;;3.47;1.30;;;;;;;24.82;44.89;101560.63;5031495;28;20213;-73
2022/06/21 09:53:31;;;;;;;9.18;1.80;;;;;;;24.65;45.77;101568.97;5028284;28;20217;-73
2022/06/21 09:56:09;;;;;;;8.43;1.85;;;;;;;24.44;44.91;101563.41;5029974;28;20690;-74
2022/06/21 09:58:40;;;;;;;5.25;1.95;;;;;;;24.88;44.58;101565.69;4860460;28;20461;-73
2022/06/21 10:01:14;;;;;;;6.05;1.70;;;;;;;24.92;44.27;101564.72;5030100;28;20241;-73
2022/06/21 10:03:49;;;;;;;5.70;1.80;;;;;;;25.26;44.84;101565.47;5030191;28;20202;-73
2022/06/21 10:06:25;;;;;;;7.53;1.92;;;;;;;25.45;44.06;101564.91;5028179;28;20178;-73
2022/06/21 10:09:16;;;;;;;4.47;1.48;;;;;;;25.37;42.07;101573.94;5029007;28;20724;-74
2022/06/21 10:11:50;;;;;;;3.95;1.70;;;;;;;25.36;42.38;101567.81;5027768;28;20210;-73
2022/06/21 10:14:21;;;;;;;5.63;1.75;;;;;;;26.07;41.31;101560.38;5029680;28;20688;-73
2022/06/21 10:17:05;;;;;;;4.15;1.75;;;;;;;26.16;40.46;101565.31;5029161;28;20170;-73
2022/06/21 10:19:57;;;;;;;6.15;1.65;;;;;;;25.57;43.07;101566.31;5029425;28;20304;-73
2022/06/21 10:22:36;;;;;;;5.15;1.67;;;;;;;25.25;43.45;101567.25;5029107;28;20210;-73
2022/06/21 10:25:36;;;;;;;7.03;1.85;;;;;;;25.06;42.41;101575.69;5029502;28;20277;-73
2022/06/21 10:28:07;;;;;;;4.70;1.52;;;;;;;25.56;41.79;101556.72;5028470;28;20189;-73
2022/06/21 10:31:05;;;;;;;7.05;2.10;;;;;;;25.95;41.96;101563.38;5029079;28;20264;-73
2022/06/21 10:34:04;;;;;;;5.47;1.30;;;;;;;26.23;39.69;101559.81;5000231;28;20227;-73
2022/06/21 10:36:48;;;;;;;3.95;1.70;;;;;;;26.37;41.65;101556.69;5008467;28;20186;-73
2022/06/21 10:39:13;;;;;;;5.75;1.58;;;;;;;26.03;40.57;101554.38;5019450;28;20241;-73
2022/06/21 10:45:11;;;;;;;4.57;1.60;;;;;;;26.59;41.29;101540.19;5028829;28;20244;-74
2022/06/21 10:48:00;;;;;;;4.03;1.35;;;;;;;26.47;38.81;101545.00;5028789;28;20186;-73
2022/06/21 10:50:36;;;;;;;4.97;1.35;;;;;;;25.62;39.18;101546.91;5028473;28;20178;-71
2022/06/21 10:53:13;;;;;;;2.92;1.23;;;;;;;25.06;39.30;101547.72;5029672;28;20596;-74
2022/06/21 10:57:09;;;;;;;5.72;1.27;;;;;;;25.74;39.61;101536.00;5028036;28;20205;-74
2022/06/21 10:58:53;;;;;;;4.97;1.70;;;;;;;25.85;41.58;101535.66;5028019;28;20225;-75
2022/06/21 11:01:37;;;;;;;6.55;2.03;;;;;;;26.16;41.58;101531.19;5029371;28;20260;-75
2022/06/21 11:04:15;;;;;;;4.15;1.67;;;;;;;25.99;40.17;101539.63;5028677;28;20257;-72
2022/06/21 11:06:44;;;;;;;4.80;1.45;;;;;;;26.32;40.64;101525.34;5028963;28;20603;-73
2022/06/21 11:09:20;;;;;;;4.97;1.30;;;;;;;26.27;40.25;101522.03;5027893;28;20675;-73
2022/06/21 11:15:04;;;;;;;3.47;1.50;;;;;;;26.25;40.03;101521.19;5028736;28;20187;-72
2022/06/21 11:17:35;;;;;;;4.45;1.40;;;;;;;26.14;39.74;101528.59;5027952;28;20524;-73
2022/06/21 11:20:20;;;;;;;7.38;1.60;;;;;;;26.24;39.42;101516.84;5028014;28;20564;-73
2022/06/21 11:23:06;;;;;;;5.43;1.63;;;;;;;26.25;39.88;101513.31;5028923;28;20297;-73
2022/06/21 11:25:52;;;;;;;4.28;1.58;;;;;;;26.30;39.23;101505.28;5019046;28;20187;-73
2022/06/21 11:28:34;;;;;;;3.92;1.20;;;;;;;25.94;38.17;101506.53;5007298;28;20175;-73
2022/06/21 11:31:02;;;;;;;3.60;1.55;;;;;;;25.79;38.57;101496.50;5008440;28;20300;-73
2022/06/21 11:33:50;;;;;;;4.13;1.30;;;;;;;26.01;39.57;101501.03;5000861;28;20226;-73
2022/06/21 11:36:37;;;;;;;2.70;1.15;;;;;;;26.31;39.07;101504.38;5008804;28;20713;-73
2022/06/21 11:39:44;;;;;;;5.95;1.30;;;;;;;26.00;39.31;101512.44;5017956;28;20566;-73
2022/06/21 11:42:27;;;;;;;4.75;1.40;;;;;;;26.16;37.76;101510.16;5027816;28;20229;-73
2022/06/21 11:45:17;;;;;;;2.97;1.35;;;;;;;26.65;37.76;101507.56;5028728;28;20179;-72
2022/06/21 11:48:01;;;;;;;2.70;1.20;;;;;;;26.48;37.24;101510.75;5027639;28;20690;-73
2022/06/21 11:50:48;;;;;;;3.67;1.42;;;;;;;26.77;38.17;101521.13;5028513;28;20261;-73
2022/06/21 11:53:19;;;;;;;4.70;1.33;;;;;;;25.78;39.05;101519.25;5027362;28;20613;-73
2022/06/21 11:56:03;;;;;;;4.20;1.42;;;;;;;25.60;37.98;101514.59;5028394;28;20197;-73
2022/06/21 11:58:38;;;;;;;3.58;1.45;;;;;;;25.95;39.14;101510.88;5028018;28;21075;-73
2022/06/21 12:01:12;;;;;;;5.57;1.42;;;;;;;26.32;40.28;101508.72;5027807;28;20217;-73
2022/06/21 12:03:57;;;;;;;5.50;1.42;;;;;;;26.56;37.27;101507.84;5028453;28;20223;-73
2022/06/21 12:06:29;;;;;;;4.50;1.42;;;;;;;26.75;39.44;101501.06;5028083;28;20210;-73
2022/06/21 12:09:18;;;;;;;3.25;1.33;;;;;;;26.85;39.27;101503.28;5012387;28;20195;-73
2022/06/21 12:12:05;;;;;;;3.70;1.40;;;;;;;26.82;38.06;101499.91;4947507;28;20223;-73
2022/06/21 12:14:57;;;;;;;4.90;1.67;;;;;;;26.11;38.63;101504.22;4988247;28;20296;-73
2022/06/21 12:17:38;;;;;;;4.85;1.55;;;;;;;27.01;39.14;101491.28;4988085;28;20176;-73
2022/06/21 12:20:14;;;;;;;4.03;1.40;;;;;;;27.11;37.75;101492.66;4987519;28;20267;-73
2022/06/21 12:22:47;;;;;;;8.57;1.50;;;;;;;27.24;36.87;101480.78;5003474;28;20294;-73
2022/06/21 12:25:16;;;;;;;4.90;1.60;;;;;;;26.93;38.20;101482.00;5009117;28;20235;-73